sensor_id;sensor_type;location;lat;lon;timestamp;pressure;altitude;pressure_sealevel;temperature;humidity
61961;BME280;47923;42.506;24.192;2023-03-14T00:00:51;95877.50;;;-3.21;70.00
61961;BME280;47923;42.506;24.192;2023-03-14T00:03:17;95623.81;;;-4.80;70.40
61961;BME280;47923;42.506;24.192;2023-03-14T00:05:43;95631.75;;;-4.75;70.82
61961;BME280;47923;42.506;24.192;2023-03-14T00:08:08;95574.66;;;-5.12;70.78
61961;BME280;47923;42.506;24.192;2023-03-14T00:10:36;95757.06;;;-4.00;71.45
61961;BME280;47923;42.506;24.192;2023-03-14T00:13:01;95675.59;;;-4.54;71.33
61961;BME280;47923;42.506;24.192;2023-03-14T00:15:27;95856.25;;;-3.46;71.21
61961;BME280;47923;42.506;24.192;2023-03-14T00:17:52;95856.28;;;-3.51;69.76
61961;BME280;47923;42.506;24.192;2023-03-14T00:20:17;95578.69;;;-5.41;69.01
61961;BME280;47923;42.506;24.192;2023-03-14T00:22:43;95578.56;;;-5.19;67.90
61961;BME280;47923;42.506;24.192;2023-03-14T00:25:10;95846.22;;;-3.49;70.08
61961;BME280;47923;42.506;24.192;2023-03-14T00:27:36;95844.09;;;-3.57;71.12
61961;BME280;47923;42.506;24.192;2023-03-14T00:30:02;94947.66;;;-9.35;68.28
61961;BME280;47923;42.506;24.192;2023-03-14T00:32:27;95825.63;;;-3.52;69.52
61961;BME280;47923;42.506;24.192;2023-03-14T00:34:53;95826.94;;;-3.50;70.30
61961;BME280;47923;42.506;24.192;2023-03-14T00:37:19;95625.19;;;-4.67;69.38
61961;BME280;47923;42.506;24.192;2023-03-14T00:39:44;95813.19;;;-3.57;70.64
61961;BME280;47923;42.506;24.192;2023-03-14T00:42:10;95590.72;;;-5.13;72.18
61961;BME280;47923;42.506;24.192;2023-03-14T00:44:35;95814.19;;;-3.78;72.79
61961;BME280;47923;42.506;24.192;2023-03-14T00:47:01;95807.50;;;-3.91;73.11
61961;BME280;47923;42.506;24.192;2023-03-14T00:49:26;95309.25;;;-7.19;72.83
61961;BME280;47923;42.506;24.192;2023-03-14T00:51:52;95802.22;;;-3.91;71.51
61961;BME280;47923;42.506;24.192;2023-03-14T00:54:19;95059.31;;;-8.70;72.02
61961;BME280;47923;42.506;24.192;2023-03-14T00:56:44;95789.31;;;-3.82;73.61
61961;BME280;47923;42.506;24.192;2023-03-14T00:59:10;95527.06;;;-5.47;73.38
61961;BME280;47923;42.506;24.192;2023-03-14T01:01:35;95696.47;;;-4.47;72.78
61961;BME280;47923;42.506;24.192;2023-03-14T01:04:01;95587.53;;;-5.20;72.26
61961;BME280;47923;42.506;24.192;2023-03-14T01:06:28;95594.88;;;-5.22;72.31
61961;BME280;47923;42.506;24.192;2023-03-14T01:08:54;95786.63;;;-4.03;72.72
61961;BME280;47923;42.506;24.192;2023-03-14T01:11:23;95777.88;;;-4.08;72.80
61961;BME280;47923;42.506;24.192;2023-03-14T01:13:49;95739.25;;;-4.35;72.83
61961;BME280;47923;42.506;24.192;2023-03-14T01:16:15;95049.81;;;-8.76;72.83
61961;BME280;47923;42.506;24.192;2023-03-14T01:18:43;95772.63;;;-4.08;71.25
61961;BME280;47923;42.506;24.192;2023-03-14T01:21:29;95769.22;;;-4.04;70.70
61961;BME280;47923;42.506;24.192;2023-03-14T01:23:57;95770.00;;;-4.03;71.41
61961;BME280;47923;42.506;24.192;2023-03-14T01:26:25;95587.75;;;-5.22;71.44
61961;BME280;47923;42.506;24.192;2023-03-14T01:28:52;95734.50;;;-4.38;71.41
61961;BME280;47923;42.506;24.192;2023-03-14T01:31:18;95725.25;;;-4.35;70.42
61961;BME280;47923;42.506;24.192;2023-03-14T01:33:46;95732.44;;;-4.26;72.30
61961;BME280;47923;42.506;24.192;2023-03-14T01:36:11;95748.38;;;-3.95;72.16
61961;BME280;47923;42.506;24.192;2023-03-14T01:38:38;95466.03;;;-5.92;72.34
61961;BME280;47923;42.506;24.192;2023-03-14T01:41:06;95524.22;;;-5.36;72.85
61961;BME280;47923;42.506;24.192;2023-03-14T01:43:31;95742.78;;;-4.09;73.25
61961;BME280;47923;42.506;24.192;2023-03-14T01:48:46;95673.69;;;-4.68;73.12
61961;BME280;47923;42.506;24.192;2023-03-14T01:51:25;95643.84;;;-4.84;72.78
61961;BME280;47923;42.506;24.192;2023-03-14T01:53:55;95494.44;;;-5.94;72.70
61961;BME280;47923;42.506;24.192;2023-03-14T01:56:25;95449.16;;;-6.33;73.37
61961;BME280;47923;42.506;24.192;2023-03-14T01:58:52;95681.53;;;-4.79;72.76
61961;BME280;47923;42.506;24.192;2023-03-14T02:01:20;95745.03;;;-4.38;73.23
61961;BME280;47923;42.506;24.192;2023-03-14T02:03:59;95745.84;;;-4.37;73.59
61961;BME280;47923;42.506;24.192;2023-03-14T02:06:31;95747.94;;;-4.34;74.17
61961;BME280;47923;42.506;24.192;2023-03-14T02:08:58;95738.75;;;-4.32;74.43
61961;BME280;47923;42.506;24.192;2023-03-14T02:11:28;95736.38;;;-4.28;74.62
61961;BME280;47923;42.506;24.192;2023-03-14T02:13:56;95737.91;;;-4.37;75.09
61961;BME280;47923;42.506;24.192;2023-03-14T02:16:23;95600.88;;;-5.32;75.44
61961;BME280;47923;42.506;24.192;2023-03-14T02:18:48;95448.84;;;-6.42;75.43
61961;BME280;47923;42.506;24.192;2023-03-14T02:21:49;95745.19;;;-4.60;76.58
61961;BME280;47923;42.506;24.192;2023-03-14T02:24:30;95664.44;;;-5.18;76.27
61961;BME280;47923;42.506;24.192;2023-03-14T02:27:13;95602.84;;;-5.54;76.42
61961;BME280;47923;42.506;24.192;2023-03-14T02:32:14;95497.97;;;-6.10;74.12
61961;BME280;47923;42.506;24.192;2023-03-14T02:34:42;95724.81;;;-4.75;74.61
61961;BME280;47923;42.506;24.192;2023-03-14T02:37:11;95697.88;;;-4.82;75.25
61961;BME280;47923;42.506;24.192;2023-03-14T02:39:40;95746.06;;;-4.44;74.88
61961;BME280;47923;42.506;24.192;2023-03-14T02:42:07;95750.22;;;-4.53;74.50
61961;BME280;47923;42.506;24.192;2023-03-14T02:44:32;95434.28;;;-6.54;74.85
61961;BME280;47923;42.506;24.192;2023-03-14T02:46:58;95751.53;;;-4.56;75.32
61961;BME280;47923;42.506;24.192;2023-03-14T02:49:25;95582.47;;;-5.69;75.43
61961;BME280;47923;42.506;24.192;2023-03-14T02:51:52;95765.13;;;-4.74;76.01
61961;BME280;47923;42.506;24.192;2023-03-14T02:54:19;95739.53;;;-4.79;75.70
61961;BME280;47923;42.506;24.192;2023-03-14T02:56:45;95746.69;;;-4.74;75.78
61961;BME280;47923;42.506;24.192;2023-03-14T02:59:11;95712.59;;;-4.86;76.31
61961;BME280;47923;42.506;24.192;2023-03-14T03:01:36;95591.44;;;-5.65;76.04
61961;BME280;47923;42.506;24.192;2023-03-14T03:04:02;95436.88;;;-6.59;76.39
61961;BME280;47923;42.506;24.192;2023-03-14T03:06:28;95713.16;;;-4.84;76.86
61961;BME280;47923;42.506;24.192;2023-03-14T03:08:53;95286.75;;;-7.69;77.23
61961;BME280;47923;42.506;24.192;2023-03-14T03:11:19;95729.13;;;-4.95;77.47
61961;BME280;47923;42.506;24.192;2023-03-14T03:13:44;95734.09;;;-5.04;77.64
61961;BME280;47923;42.506;24.192;2023-03-14T03:16:10;95733.50;;;-5.11;77.83
61961;BME280;47923;42.506;24.192;2023-03-14T03:18:35;95533.03;;;-6.36;77.64
61961;BME280;47923;42.506;24.192;2023-03-14T03:21:02;95725.06;;;-5.13;77.85
61961;BME280;47923;42.506;24.192;2023-03-14T03:23:29;95727.16;;;-5.15;78.20
61961;BME280;47923;42.506;24.192;2023-03-14T03:25:55;95759.56;;;-5.15;77.98
61961;BME280;47923;42.506;24.192;2023-03-14T03:28:21;95731.66;;;-5.11;77.77
61961;BME280;47923;42.506;24.192;2023-03-14T03:30:46;95729.03;;;-5.11;77.91
61961;BME280;47923;42.506;24.192;2023-03-14T03:33:12;95581.94;;;-6.03;78.29
61961;BME280;47923;42.506;24.192;2023-03-14T03:35:43;95720.81;;;-5.19;77.89
61961;BME280;47923;42.506;24.192;2023-03-14T03:38:08;95638.94;;;-5.82;78.97
61961;BME280;47923;42.506;24.192;2023-03-14T03:40:34;95703.91;;;-5.23;78.82
61961;BME280;47923;42.506;24.192;2023-03-14T03:42:59;95693.31;;;-5.34;77.82
61961;BME280;47923;42.506;24.192;2023-03-14T03:45:25;95707.00;;;-5.32;77.22
61961;BME280;47923;42.506;24.192;2023-03-14T03:47:51;95495.31;;;-6.52;77.08
61961;BME280;47923;42.506;24.192;2023-03-14T03:50:16;95690.38;;;-5.37;76.31
61961;BME280;47923;42.506;24.192;2023-03-14T03:52:42;95723.13;;;-5.23;76.96
61961;BME280;47923;42.506;24.192;2023-03-14T03:55:07;95729.66;;;-5.31;77.07
61961;BME280;47923;42.506;24.192;2023-03-14T03:57:33;95724.97;;;-5.23;76.51
61961;BME280;47923;42.506;24.192;2023-03-14T03:59:59;95497.88;;;-6.57;76.31
61961;BME280;47923;42.506;24.192;2023-03-14T04:02:24;95532.84;;;-6.25;77.07
61961;BME280;47923;42.506;24.192;2023-03-14T04:04:50;95374.31;;;-7.27;77.03
61961;BME280;47923;42.506;24.192;2023-03-14T04:07:15;95671.97;;;-5.32;77.16
61961;BME280;47923;42.506;24.192;2023-03-14T04:09:40;95257.22;;;-8.09;77.53
61961;BME280;47923;42.506;24.192;2023-03-14T04:12:06;95684.50;;;-5.49;77.30
61961;BME280;47923;42.506;24.192;2023-03-14T04:14:32;95569.66;;;-6.25;77.07
61961;BME280;47923;42.506;24.192;2023-03-14T04:16:57;95502.78;;;-6.66;76.02
61961;BME280;47923;42.506;24.192;2023-03-14T04:19:22;95704.63;;;-5.33;76.06
61961;BME280;47923;42.506;24.192;2023-03-14T04:21:48;95309.50;;;-7.75;76.95
61961;BME280;47923;42.506;24.192;2023-03-14T04:24:13;95710.59;;;-5.11;77.54
61961;BME280;47923;42.506;24.192;2023-03-14T04:26:41;95705.38;;;-5.06;77.56
61961;BME280;47923;42.506;24.192;2023-03-14T04:29:07;95711.75;;;-4.96;77.45
61961;BME280;47923;42.506;24.192;2023-03-14T04:31:32;95624.72;;;-5.49;77.32
61961;BME280;47923;42.506;24.192;2023-03-14T04:33:58;95706.75;;;-4.93;77.18
61961;BME280;47923;42.506;24.192;2023-03-14T04:36:23;95709.66;;;-4.94;77.95
61961;BME280;47923;42.506;24.192;2023-03-14T04:38:48;95702.28;;;-4.92;76.04
61961;BME280;47923;42.506;24.192;2023-03-14T04:41:14;95717.13;;;-4.81;75.70
61961;BME280;47923;42.506;24.192;2023-03-14T04:43:39;95723.22;;;-4.70;74.80
61961;BME280;47923;42.506;24.192;2023-03-14T04:46:05;95712.75;;;-4.60;74.81
61961;BME280;47923;42.506;24.192;2023-03-14T04:48:31;95564.63;;;-5.62;75.09
61961;BME280;47923;42.506;24.192;2023-03-14T04:50:56;95495.78;;;-5.86;74.25
61961;BME280;47923;42.506;24.192;2023-03-14T04:53:22;95723.16;;;-4.33;73.84
61961;BME280;47923;42.506;24.192;2023-03-14T04:55:52;95710.28;;;-4.25;74.46
61961;BME280;47923;42.506;24.192;2023-03-14T04:58:19;95713.22;;;-4.16;74.28
61961;BME280;47923;42.506;24.192;2023-03-14T05:00:45;95710.88;;;-4.02;74.00
61961;BME280;47923;42.506;24.192;2023-03-14T05:03:11;95713.56;;;-3.87;73.56
61961;BME280;47923;42.506;24.192;2023-03-14T05:05:36;95716.50;;;-3.63;71.68
61961;BME280;47923;42.506;24.192;2023-03-14T05:08:02;95719.19;;;-3.38;71.29
61961;BME280;47923;42.506;24.192;2023-03-14T05:10:27;95723.41;;;-3.16;70.50
61961;BME280;47923;42.506;24.192;2023-03-14T05:12:52;95545.41;;;-4.07;69.62
61961;BME280;47923;42.506;24.192;2023-03-14T05:15:18;95623.03;;;-3.52;69.84
61961;BME280;47923;42.506;24.192;2023-03-14T05:17:43;95726.28;;;-2.72;69.18
61961;BME280;47923;42.506;24.192;2023-03-14T05:20:09;95708.00;;;-2.58;68.26
61961;BME280;47923;42.506;24.192;2023-03-14T05:22:38;95700.59;;;-2.51;67.58
61961;BME280;47923;42.506;24.192;2023-03-14T05:25:03;95496.50;;;-3.48;66.75
61961;BME280;47923;42.506;24.192;2023-03-14T05:27:29;95553.97;;;-3.04;67.00
61961;BME280;47923;42.506;24.192;2023-03-14T05:29:54;95713.91;;;-2.02;67.38
61961;BME280;47923;42.506;24.192;2023-03-14T05:32:20;95657.34;;;-2.21;67.09
61961;BME280;47923;42.506;24.192;2023-03-14T05:34:45;95533.72;;;-2.65;64.87
61961;BME280;47923;42.506;24.192;2023-03-14T05:37:11;95644.38;;;-1.78;64.77
61961;BME280;47923;42.506;24.192;2023-03-14T05:39:36;95707.47;;;-1.07;64.82
61961;BME280;47923;42.506;24.192;2023-03-14T05:42:02;95193.75;;;-4.23;63.41
61961;BME280;47923;42.506;24.192;2023-03-14T05:44:27;95685.63;;;-0.94;63.55
61961;BME280;47923;42.506;24.192;2023-03-14T05:46:53;95670.94;;;-0.33;62.27
61961;BME280;47923;42.506;24.192;2023-03-14T05:49:18;95582.84;;;0.54;58.46
61961;BME280;47923;42.506;24.192;2023-03-14T05:51:43;95705.81;;;3.21;51.94
61961;BME280;47923;42.506;24.192;2023-03-14T05:54:09;95717.63;;;4.39;47.10
61961;BME280;47923;42.506;24.192;2023-03-14T05:56:34;95615.00;;;5.89;42.64
61961;BME280;47923;42.506;24.192;2023-03-14T05:59:00;95427.38;;;6.34;38.11
61961;BME280;47923;42.506;24.192;2023-03-14T06:01:28;95688.63;;;9.33;36.06
61961;BME280;47923;42.506;24.192;2023-03-14T06:03:53;95381.19;;;9.30;32.13
61961;BME280;47923;42.506;24.192;2023-03-14T06:06:19;95653.56;;;11.56;30.18
61961;BME280;47923;42.506;24.192;2023-03-14T06:08:44;95411.53;;;10.36;29.88
61961;BME280;47923;42.506;24.192;2023-03-14T06:11:10;95592.38;;;11.52;29.22
61961;BME280;47923;42.506;24.192;2023-03-14T06:13:35;95677.63;;;12.83;28.41
61961;BME280;47923;42.506;24.192;2023-03-14T06:16:01;95518.59;;;12.04;27.92
61961;BME280;47923;42.506;24.192;2023-03-14T06:18:27;95663.97;;;14.65;26.44
61961;BME280;47923;42.506;24.192;2023-03-14T06:20:56;95612.25;;;15.53;24.39
61961;BME280;47923;42.506;24.192;2023-03-14T06:23:22;95633.28;;;15.52;23.91
61961;BME280;47923;42.506;24.192;2023-03-14T06:25:48;95490.63;;;12.90;25.73
61961;BME280;47923;42.506;24.192;2023-03-14T06:28:13;95600.50;;;15.20;24.67
61961;BME280;47923;42.506;24.192;2023-03-14T06:30:39;95625.41;;;15.22;24.38
61961;BME280;47923;42.506;24.192;2023-03-14T06:33:04;95649.09;;;17.39;23.20
61961;BME280;47923;42.506;24.192;2023-03-14T06:35:30;95591.59;;;17.71;22.13
61961;BME280;47923;42.506;24.192;2023-03-14T06:37:55;95644.22;;;18.79;20.98
61961;BME280;47923;42.506;24.192;2023-03-14T06:40:21;95567.34;;;18.66;20.08
61961;BME280;47923;42.506;24.192;2023-03-14T06:42:47;95641.56;;;17.61;21.66
61961;BME280;47923;42.506;24.192;2023-03-14T06:45:13;95641.66;;;18.99;19.93
61961;BME280;47923;42.506;24.192;2023-03-14T06:47:38;95623.97;;;19.07;19.98
61961;BME280;47923;42.506;24.192;2023-03-14T06:50:06;95636.28;;;18.92;20.27
61961;BME280;47923;42.506;24.192;2023-03-14T06:52:32;95616.09;;;19.43;18.93
61961;BME280;47923;42.506;24.192;2023-03-14T06:54:57;95507.31;;;18.11;19.50
61961;BME280;47923;42.506;24.192;2023-03-14T06:57:23;95506.38;;;17.87;19.71
61961;BME280;47923;42.506;24.192;2023-03-14T06:59:48;95645.31;;;19.23;19.47
61961;BME280;47923;42.506;24.192;2023-03-14T07:02:14;95575.69;;;19.20;18.72
61961;BME280;47923;42.506;24.192;2023-03-14T07:04:40;95552.84;;;20.35;18.85
61961;BME280;47923;42.506;24.192;2023-03-14T07:07:06;95584.97;;;21.93;18.15
61961;BME280;47923;42.506;24.192;2023-03-14T07:09:32;95581.13;;;24.67;15.70
61961;BME280;47923;42.506;24.192;2023-03-14T07:11:57;95627.59;;;24.81;14.68
61961;BME280;47923;42.506;24.192;2023-03-14T07:14:23;95598.56;;;23.65;14.99
61961;BME280;47923;42.506;24.192;2023-03-14T07:19:14;95623.78;;;22.15;16.12
61961;BME280;47923;42.506;24.192;2023-03-14T07:21:39;95519.66;;;22.59;15.33
61961;BME280;47923;42.506;24.192;2023-03-14T07:24:05;95614.78;;;22.93;15.07
61961;BME280;47923;42.506;24.192;2023-03-14T07:26:30;95459.78;;;22.63;14.36
61961;BME280;47923;42.506;24.192;2023-03-14T07:28:56;95596.56;;;24.17;14.73
61961;BME280;47923;42.506;24.192;2023-03-14T07:31:21;95580.56;;;23.99;13.92
61961;BME280;47923;42.506;24.192;2023-03-14T07:33:47;95609.03;;;23.16;14.61
61961;BME280;47923;42.506;24.192;2023-03-14T07:36:13;95416.66;;;21.53;14.85
61961;BME280;47923;42.506;24.192;2023-03-14T07:38:38;95539.41;;;22.86;15.04
61961;BME280;47923;42.506;24.192;2023-03-14T07:41:05;95384.09;;;21.35;14.74
61961;BME280;47923;42.506;24.192;2023-03-14T07:43:32;95541.53;;;23.75;14.44
61961;BME280;47923;42.506;24.192;2023-03-14T07:45:57;95585.88;;;24.06;14.27
61961;BME280;47923;42.506;24.192;2023-03-14T07:48:23;95485.59;;;25.00;13.72
61961;BME280;47923;42.506;24.192;2023-03-14T07:50:51;95470.91;;;24.81;13.12
61961;BME280;47923;42.506;24.192;2023-03-14T07:53:17;95594.63;;;22.79;14.73
61961;BME280;47923;42.506;24.192;2023-03-14T07:55:43;95449.13;;;24.40;13.74
61961;BME280;47923;42.506;24.192;2023-03-14T07:58:09;95491.19;;;24.66;13.16
61961;BME280;47923;42.506;24.192;2023-03-14T08:00:34;95594.69;;;25.52;13.15
61961;BME280;47923;42.506;24.192;2023-03-14T08:03:00;95589.69;;;24.81;13.38
61961;BME280;47923;42.506;24.192;2023-03-14T08:05:26;95596.97;;;24.53;13.50
61961;BME280;47923;42.506;24.192;2023-03-14T08:07:51;95586.63;;;24.07;14.08
61961;BME280;47923;42.506;24.192;2023-03-14T08:10:17;95571.50;;;25.06;13.38
61961;BME280;47923;42.506;24.192;2023-03-14T08:12:50;95421.53;;;24.93;13.25
61961;BME280;47923;42.506;24.192;2023-03-14T08:15:15;95572.03;;;25.14;13.59
61961;BME280;47923;42.506;24.192;2023-03-14T08:17:41;95583.41;;;24.21;13.64
61961;BME280;47923;42.506;24.192;2023-03-14T08:20:07;95570.47;;;25.13;14.03
61961;BME280;47923;42.506;24.192;2023-03-14T08:22:33;95375.69;;;22.04;14.40
61961;BME280;47923;42.506;24.192;2023-03-14T08:24:59;95493.91;;;25.00;13.28
61961;BME280;47923;42.506;24.192;2023-03-14T08:27:24;95489.84;;;24.48;14.10
61961;BME280;47923;42.506;24.192;2023-03-14T08:29:50;95526.28;;;22.91;14.82
61961;BME280;47923;42.506;24.192;2023-03-14T08:32:15;95549.31;;;25.19;13.56
61961;BME280;47923;42.506;24.192;2023-03-14T08:34:40;95554.81;;;24.40;13.87
61961;BME280;47923;42.506;24.192;2023-03-14T08:37:06;95545.22;;;26.44;13.92
61961;BME280;47923;42.506;24.192;2023-03-14T08:39:31;95434.75;;;25.69;12.95
61961;BME280;47923;42.506;24.192;2023-03-14T08:41:57;95500.88;;;26.26;13.18
61961;BME280;47923;42.506;24.192;2023-03-14T08:44:22;95545.09;;;25.67;13.06
61961;BME280;47923;42.506;24.192;2023-03-14T08:46:48;95532.06;;;24.93;13.61
61961;BME280;47923;42.506;24.192;2023-03-14T08:49:14;95448.25;;;24.96;14.12
61961;BME280;47923;42.506;24.192;2023-03-14T08:51:40;95525.63;;;26.29;13.63
61961;BME280;47923;42.506;24.192;2023-03-14T08:54:05;95529.00;;;24.91;13.98
61961;BME280;47923;42.506;24.192;2023-03-14T08:56:31;95517.09;;;25.87;13.49
61961;BME280;47923;42.506;24.192;2023-03-14T08:58:56;95401.16;;;21.10;15.98
61961;BME280;47923;42.506;24.192;2023-03-14T09:01:22;95533.88;;;23.28;15.08
61961;BME280;47923;42.506;24.192;2023-03-14T09:03:50;95415.09;;;24.43;14.04
61961;BME280;47923;42.506;24.192;2023-03-14T09:06:16;95527.56;;;25.61;13.73
61961;BME280;47923;42.506;24.192;2023-03-14T09:08:43;95530.69;;;23.93;15.49
61961;BME280;47923;42.506;24.192;2023-03-14T09:11:09;95482.25;;;25.27;14.20
61961;BME280;47923;42.506;24.192;2023-03-14T09:13:35;95524.88;;;24.73;14.27
61961;BME280;47923;42.506;24.192;2023-03-14T09:16:01;95522.28;;;25.45;14.18
61961;BME280;47923;42.506;24.192;2023-03-14T09:18:26;95516.41;;;25.12;14.01
61961;BME280;47923;42.506;24.192;2023-03-14T09:20:52;95513.56;;;24.80;15.13
61961;BME280;47923;42.506;24.192;2023-03-14T09:23:17;95379.16;;;24.87;15.84
61961;BME280;47923;42.506;24.192;2023-03-14T09:25:43;95515.47;;;26.26;14.29
61961;BME280;47923;42.506;24.192;2023-03-14T09:28:08;95501.09;;;25.91;13.77
61961;BME280;47923;42.506;24.192;2023-03-14T09:30:34;95497.44;;;25.63;14.31
61961;BME280;47923;42.506;24.192;2023-03-14T09:32:59;95502.38;;;24.27;14.74
61961;BME280;47923;42.506;24.192;2023-03-14T09:35:25;95496.72;;;24.66;15.11
61961;BME280;47923;42.506;24.192;2023-03-14T09:37:51;95484.78;;;26.52;14.35
61961;BME280;47923;42.506;24.192;2023-03-14T09:40:17;95355.50;;;23.29;15.25
61961;BME280;47923;42.506;24.192;2023-03-14T09:42:46;95485.13;;;23.00;16.37
61961;BME280;47923;42.506;24.192;2023-03-14T09:45:19;95365.81;;;21.45;16.67
61961;BME280;47923;42.506;24.192;2023-03-14T09:47:48;95472.06;;;22.87;15.69
61961;BME280;47923;42.506;24.192;2023-03-14T09:50:15;95445.63;;;21.21;17.77
61961;BME280;47923;42.506;24.192;2023-03-14T09:52:45;95472.47;;;22.15;17.24
61961;BME280;47923;42.506;24.192;2023-03-14T09:55:15;95460.19;;;21.55;17.68
61961;BME280;47923;42.506;24.192;2023-03-14T09:57:42;95464.78;;;21.25;18.22
61961;BME280;47923;42.506;24.192;2023-03-14T10:00:21;95390.72;;;20.49;18.01
61961;BME280;47923;42.506;24.192;2023-03-14T10:05:46;95254.16;;;20.73;17.89
61961;BME280;47923;42.506;24.192;2023-03-14T10:08:13;95449.72;;;20.77;18.95
61961;BME280;47923;42.506;24.192;2023-03-14T10:10:39;95340.63;;;21.14;17.19
61961;BME280;47923;42.506;24.192;2023-03-14T10:13:19;95441.22;;;22.51;16.95
61961;BME280;47923;42.506;24.192;2023-03-14T10:15:51;95433.47;;;21.55;18.17
61961;BME280;47923;42.506;24.192;2023-03-14T10:18:17;95322.25;;;21.89;17.65
61961;BME280;47923;42.506;24.192;2023-03-14T10:20:45;95408.84;;;22.97;17.05
61961;BME280;47923;42.506;24.192;2023-03-14T10:25:43;95226.00;;;23.51;15.87
61961;BME280;47923;42.506;24.192;2023-03-14T10:28:29;95362.75;;;24.17;15.97
61961;BME280;47923;42.506;24.192;2023-03-14T10:30:56;95215.44;;;21.74;17.14
61961;BME280;47923;42.506;24.192;2023-03-14T10:33:34;95398.50;;;23.86;16.41
61961;BME280;47923;42.506;24.192;2023-03-14T10:38:42;95361.09;;;21.91;18.03
61961;BME280;47923;42.506;24.192;2023-03-14T10:41:23;95375.44;;;23.33;16.43
61961;BME280;47923;42.506;24.192;2023-03-14T10:43:51;95372.66;;;22.56;17.13
61961;BME280;47923;42.506;24.192;2023-03-14T10:46:19;95365.53;;;22.30;17.01
61961;BME280;47923;42.506;24.192;2023-03-14T10:48:47;95227.47;;;20.21;17.74
61961;BME280;47923;42.506;24.192;2023-03-14T10:51:18;95348.25;;;20.74;17.95
61961;BME280;47923;42.506;24.192;2023-03-14T10:53:48;95226.78;;;20.69;17.51
61961;BME280;47923;42.506;24.192;2023-03-14T10:56:17;95273.78;;;20.88;17.54
61961;BME280;47923;42.506;24.192;2023-03-14T10:58:49;95330.72;;;21.94;17.19
61961;BME280;47923;42.506;24.192;2023-03-14T11:06:57;95313.00;;;21.83;16.95
61961;BME280;47923;42.506;24.192;2023-03-14T11:09:50;95247.41;;;21.68;17.27
61961;BME280;47923;42.506;24.192;2023-03-14T11:15:21;95281.59;;;21.96;16.81
61961;BME280;47923;42.506;24.192;2023-03-14T11:18:10;95276.53;;;22.07;16.67
61961;BME280;47923;42.506;24.192;2023-03-14T11:20:46;95252.06;;;20.77;18.17
61961;BME280;47923;42.506;24.192;2023-03-14T11:26:40;95252.50;;;22.37;17.33
61961;BME280;47923;42.506;24.192;2023-03-14T11:29:26;95255.16;;;21.57;17.95
61961;BME280;47923;42.506;24.192;2023-03-14T11:31:55;95030.63;;;19.27;18.62
61961;BME280;47923;42.506;24.192;2023-03-14T11:34:27;95246.22;;;19.86;20.19
61961;BME280;47923;42.506;24.192;2023-03-14T11:37:05;95172.50;;;18.46;21.57
61961;BME280;47923;42.506;24.192;2023-03-14T11:39:40;95229.75;;;18.57;21.86
61961;BME280;47923;42.506;24.192;2023-03-14T11:42:12;95203.22;;;17.73;22.60
61961;BME280;47923;42.506;24.192;2023-03-14T11:44:40;95228.69;;;17.62;22.81
61961;BME280;47923;42.506;24.192;2023-03-14T11:47:12;95196.97;;;16.63;24.31
61961;BME280;47923;42.506;24.192;2023-03-14T11:49:46;95222.19;;;16.22;24.81
61961;BME280;47923;42.506;24.192;2023-03-14T11:52:27;95107.66;;;15.07;25.73
61961;BME280;47923;42.506;24.192;2023-03-14T11:55:02;95208.06;;;15.71;25.76
61961;BME280;47923;42.506;24.192;2023-03-14T11:57:30;95201.53;;;15.62;25.89
61961;BME280;47923;42.506;24.192;2023-03-14T11:59:59;95199.81;;;14.84;26.76
61961;BME280;47923;42.506;24.192;2023-03-14T12:13:16;95179.25;;;14.26;28.17
61961;BME280;47923;42.506;24.192;2023-03-14T12:15:54;95161.41;;;14.25;27.80
61961;BME280;47923;42.506;24.192;2023-03-14T12:18:40;95166.00;;;13.74;28.83
61961;BME280;47923;42.506;24.192;2023-03-14T12:21:09;95152.44;;;13.85;29.03
61961;BME280;47923;42.506;24.192;2023-03-14T12:23:50;94913.72;;;12.12;29.46
61961;BME280;47923;42.506;24.192;2023-03-14T12:42:20;95125.56;;;13.26;30.26
61961;BME280;47923;42.506;24.192;2023-03-14T12:44:49;95074.31;;;13.07;30.71
61961;BME280;47923;42.506;24.192;2023-03-14T12:49:53;95019.19;;;12.64;30.05
61961;BME280;47923;42.506;24.192;2023-03-14T12:55:10;95103.28;;;12.82;30.55
61961;BME280;47923;42.506;24.192;2023-03-14T13:00:31;95099.84;;;12.95;30.92
61961;BME280;47923;42.506;24.192;2023-03-14T13:03:21;95075.31;;;12.63;30.75
61961;BME280;47923;42.506;24.192;2023-03-14T13:06:01;95095.59;;;12.98;30.15
61961;BME280;47923;42.506;24.192;2023-03-14T13:11:06;94979.06;;;12.11;30.30
61961;BME280;47923;42.506;24.192;2023-03-14T13:13:35;95092.91;;;13.05;30.24
61961;BME280;47923;42.506;24.192;2023-03-14T13:16:01;94972.63;;;11.75;30.12
61961;BME280;47923;42.506;24.192;2023-03-14T13:18:37;95080.81;;;12.81;30.20
61961;BME280;47923;42.506;24.192;2023-03-14T13:21:22;95078.41;;;12.62;30.40
61961;BME280;47923;42.506;24.192;2023-03-14T13:24:07;94982.66;;;12.29;30.62
61961;BME280;47923;42.506;24.192;2023-03-14T13:26:43;95069.13;;;12.66;30.44
61961;BME280;47923;42.506;24.192;2023-03-14T13:29:16;95010.09;;;12.24;30.47
61961;BME280;47923;42.506;24.192;2023-03-14T13:31:45;94971.09;;;11.70;30.19
61961;BME280;47923;42.506;24.192;2023-03-14T13:34:14;95054.78;;;12.59;30.34
61961;BME280;47923;42.506;24.192;2023-03-14T13:36:39;95051.09;;;12.26;30.74
61961;BME280;47923;42.506;24.192;2023-03-14T13:39:10;95048.53;;;12.48;30.70
61961;BME280;47923;42.506;24.192;2023-03-14T13:41:39;95032.63;;;12.39;30.98
61961;BME280;47923;42.506;24.192;2023-03-14T13:44:30;95041.56;;;12.47;30.60
61961;BME280;47923;42.506;24.192;2023-03-14T13:46:58;94978.69;;;12.09;30.92
61961;BME280;47923;42.506;24.192;2023-03-14T13:49:25;95050.38;;;12.33;31.12
61961;BME280;47923;42.506;24.192;2023-03-14T13:51:52;94921.84;;;11.47;31.26
61961;BME280;47923;42.506;24.192;2023-03-14T13:54:19;95028.06;;;12.57;31.19
61961;BME280;47923;42.506;24.192;2023-03-14T13:56:46;94813.47;;;10.60;31.05
61961;BME280;47923;42.506;24.192;2023-03-14T13:59:25;95024.78;;;12.23;31.37